createdAt,value
2022-10-11T00:04:20.188Z,12.20
2022-10-11T00:09:24.355Z,12.60
2022-10-11T00:14:40.398Z,18.10
2022-10-11T00:19:56.537Z,9.65
2022-10-11T00:25:14.025Z,13.07
2022-10-11T00:30:31.229Z,15.27
2022-10-11T00:35:50.051Z,23.48
2022-10-11T00:41:09.416Z,15.98
2022-10-11T00:46:32.405Z,30.23
2022-10-11T00:51:54.188Z,19.73
2022-10-11T00:57:02.448Z,18.10
2022-10-11T01:02:08.080Z,14.43
2022-10-11T01:07:14.231Z,12.98
2022-10-11T01:12:21.223Z,13.32
2022-10-11T01:17:34.177Z,15.43
2022-10-11T01:23:08.462Z,10.23
2022-10-11T01:28:28.055Z,10.43
2022-10-11T01:38:47.264Z,9.65
2022-10-11T01:43:53.305Z,14.73
2022-10-11T01:49:01.229Z,13.95
2022-10-11T01:55:03.907Z,10.10
2022-10-11T02:00:17.402Z,9.48
2022-10-11T02:05:41.539Z,11.40
2022-10-11T02:11:04.774Z,11.10
2022-10-11T02:16:27.643Z,14.18
2022-10-11T02:21:48.331Z,15.57
2022-10-11T02:27:09.476Z,11.63
2022-10-11T02:32:27.740Z,12.40
2022-10-11T02:37:52.741Z,11.75
2022-10-11T02:43:13.882Z,12.57
2022-10-11T02:48:31.734Z,11.18
2022-10-11T02:53:48.317Z,11.10
2022-10-11T02:59:04.966Z,20.10
2022-10-11T03:04:21.553Z,11.27
2022-10-11T03:09:38.078Z,13.32
2022-10-11T03:14:56.388Z,12.60
2022-10-11T03:20:00.724Z,12.65
2022-10-11T03:25:05.167Z,17.08
2022-10-11T03:30:17.313Z,11.98
2022-10-11T03:35:22.747Z,12.73
2022-10-11T03:40:27.046Z,13.93
2022-10-11T03:45:32.456Z,17.27
2022-10-11T03:50:38.574Z,18.38
2022-10-11T03:55:43.364Z,25.30
2022-10-11T04:00:48.756Z,36.22
2022-10-11T04:05:52.882Z,25.02
2022-10-11T04:10:56.904Z,28.65
2022-10-11T04:16:02.594Z,22.05
2022-10-11T04:21:20.153Z,16.15
2022-10-11T04:26:38.972Z,13.32
2022-10-11T04:31:55.201Z,17.38
2022-10-11T04:37:11.671Z,17.55
2022-10-11T04:42:28.602Z,23.30
2022-10-11T04:48:09.879Z,25.67
2022-10-11T04:53:26.419Z,56.47
2022-10-11T04:58:42.956Z,16.95
2022-10-11T05:03:47.074Z,27.95
2022-10-11T05:08:51.169Z,24.35
2022-10-11T05:13:57.109Z,21.35
2022-10-11T05:19:01.251Z,15.85
2022-10-11T05:24:05.842Z,18.05
2022-10-11T05:29:11.648Z,24.83
2022-10-11T05:34:15.623Z,25.77
2022-10-11T05:39:19.604Z,19.83
2022-10-11T05:44:25.342Z,21.10
2022-10-11T05:49:29.849Z,15.88
2022-10-11T05:54:34.758Z,19.33
2022-10-11T05:59:41.418Z,20.98
2022-10-11T06:04:45.430Z,23.02
2022-10-11T06:09:49.641Z,16.02
2022-10-11T06:14:59.032Z,19.75
2022-10-11T06:25:08.073Z,17.85
2022-10-11T06:30:14.795Z,13.60
2022-10-11T06:35:18.900Z,17.27
2022-10-11T06:40:24.292Z,24.13
2022-10-11T06:45:29.651Z,15.00
2022-10-11T06:50:57.908Z,20.75
2022-10-11T06:56:04.432Z,24.42
2022-10-11T07:01:13.128Z,18.90
2022-10-11T07:06:18.935Z,17.97
2022-10-11T07:11:25.450Z,25.23
2022-10-11T07:16:32.094Z,18.65
2022-10-11T07:21:36.863Z,20.25
2022-10-11T07:26:41.222Z,18.58
2022-10-11T07:31:46.738Z,15.07
2022-10-11T07:36:59.441Z,16.65
2022-10-11T07:42:03.646Z,28.38
2022-10-11T07:47:11.434Z,23.60
2022-10-11T07:52:15.675Z,17.80
2022-10-11T07:57:31.022Z,20.98
2022-10-11T08:03:07.201Z,18.50
2022-10-11T08:08:49.040Z,18.90
2022-10-11T08:14:22.215Z,43.72
2022-10-11T08:19:54.605Z,15.95
2022-10-11T08:25:29.492Z,26.65
2022-10-11T08:31:03.208Z,17.23
2022-10-11T08:36:38.836Z,29.02
2022-10-11T08:42:48.474Z,18.77
2022-10-11T08:48:21.432Z,22.10
2022-10-11T08:53:55.455Z,27.85
2022-10-11T08:59:37.616Z,23.42
2022-10-11T09:04:57.673Z,27.95
2022-10-11T09:10:20.990Z,18.98
2022-10-11T09:15:40.528Z,22.50
2022-10-11T09:21:03.655Z,25.20
2022-10-11T09:26:16.081Z,18.70
2022-10-11T09:31:20.525Z,22.30
2022-10-11T09:36:32.688Z,20.23
2022-10-11T09:41:44.290Z,16.92
2022-10-11T09:46:51.056Z,18.88
2022-10-11T09:51:58.955Z,16.42
2022-10-11T09:57:03.083Z,14.43
2022-10-11T10:02:22.225Z,14.00
2022-10-11T10:07:28.694Z,18.75
2022-10-11T10:12:33.993Z,19.95
2022-10-11T10:17:38.100Z,19.88
2022-10-11T10:22:48.112Z,16.27
2022-10-11T10:28:00.256Z,15.40
2022-10-11T10:33:08.890Z,19.63
2022-10-11T10:38:26.597Z,12.23
2022-10-11T10:43:36.241Z,17.65
2022-10-11T10:49:23.649Z,17.83
2022-10-11T10:54:18.997Z,10.88
2022-10-11T10:59:41.102Z,13.02
2022-10-11T11:04:51.970Z,14.57
2022-10-11T11:10:04.036Z,12.80
2022-10-11T11:15:14.474Z,12.40
2022-10-11T11:20:29.885Z,19.98
2022-10-11T11:25:45.214Z,13.82
2022-10-11T11:30:59.257Z,12.98
2022-10-11T11:36:07.771Z,15.02
2022-10-11T11:41:19.047Z,12.52
2022-10-11T11:46:28.248Z,15.73
2022-10-11T11:51:35.548Z,16.42
2022-10-11T11:56:55.182Z,15.73
2022-10-11T12:02:17.701Z,19.08
2022-10-11T12:07:24.837Z,19.83
2022-10-11T12:12:36.738Z,19.52
2022-10-11T12:18:03.561Z,15.38
2022-10-11T12:23:40.130Z,21.35
2022-10-11T12:29:17.529Z,22.05
2022-10-11T12:34:35.436Z,18.10
2022-10-11T12:39:50.905Z,21.10
2022-10-11T12:45:32.237Z,15.05
2022-10-11T12:50:46.644Z,14.18
2022-10-11T12:55:59.215Z,18.10
2022-10-11T13:01:19.121Z,14.18
2022-10-11T13:06:28.761Z,20.40
2022-10-11T13:11:35.767Z,20.58
2022-10-11T13:17:00.332Z,20.55
2022-10-11T13:22:08.336Z,18.38
2022-10-11T13:27:22.713Z,21.70
2022-10-11T13:32:30.950Z,21.52
2022-10-11T13:37:43.678Z,22.70
2022-10-11T13:42:50.923Z,19.42
2022-10-11T13:47:57.942Z,20.02
2022-10-11T13:53:04.318Z,26.45
2022-10-11T13:58:18.957Z,23.70
2022-10-11T14:03:27.064Z,25.67
2022-10-11T14:08:40.953Z,27.00
2022-10-11T14:13:48.057Z,25.98
2022-10-11T14:19:10.070Z,31.98
2022-10-11T14:24:14.936Z,24.77
2022-10-11T14:29:23.672Z,22.15
2022-10-11T14:34:30.191Z,29.05
2022-10-11T14:39:35.502Z,38.50
2022-10-11T14:44:42.125Z,40.05
2022-10-11T14:49:48.618Z,27.00
2022-10-11T14:54:52.741Z,24.73
2022-10-11T14:59:56.781Z,27.50
2022-10-11T15:05:02.667Z,21.90
2022-10-11T15:10:18.757Z,33.83
2022-10-11T15:15:25.967Z,24.00
2022-10-11T15:20:36.302Z,25.95
2022-10-11T15:25:44.593Z,25.40
2022-10-11T15:30:48.722Z,31.20
2022-10-11T15:35:54.658Z,27.38
2022-10-11T15:41:00.117Z,23.90
2022-10-11T15:46:05.083Z,22.95
2022-10-11T15:51:11.448Z,25.30
2022-10-11T15:56:18.938Z,31.00
2022-10-11T16:01:22.928Z,30.67
2022-10-11T16:06:30.268Z,41.53
2022-10-11T16:11:34.452Z,42.65
2022-10-11T16:16:38.766Z,45.53
2022-10-11T16:21:44.467Z,56.92
2022-10-11T16:26:48.552Z,99.22
2022-10-11T16:31:52.678Z,56.13
2022-10-11T16:36:58.390Z,53.83
2022-10-11T16:42:03.299Z,53.28
2022-10-11T16:47:08.113Z,57.60
2022-10-11T16:52:15.149Z,105.20
2022-10-11T16:57:21.898Z,85.10
2022-10-11T17:02:32.145Z,61.08
2022-10-11T17:07:38.118Z,63.05
2022-10-11T17:12:47.720Z,59.17
2022-10-11T17:17:57.023Z,62.97
2022-10-11T17:23:02.930Z,45.40
2022-10-11T17:28:07.178Z,43.17
2022-10-11T17:33:12.730Z,39.20
2022-10-11T17:38:19.840Z,38.25
2022-10-11T17:43:24.214Z,37.13
2022-10-11T17:48:29.888Z,36.53
2022-10-11T17:53:37.555Z,44.00
2022-10-11T17:58:45.582Z,36.58
2022-10-11T18:03:52.746Z,47.85
2022-10-11T18:09:01.088Z,38.00
2022-10-11T18:14:08.267Z,36.43
2022-10-11T18:19:14.881Z,35.97
2022-10-11T18:24:22.290Z,38.58
2022-10-11T18:29:26.877Z,49.55
2022-10-11T18:34:31.153Z,44.55
2022-10-11T18:39:36.823Z,32.22
2022-10-11T18:44:40.899Z,34.08
2022-10-11T18:49:45.062Z,34.47
2022-10-11T18:54:50.455Z,28.75
2022-10-11T18:59:55.454Z,55.85
2022-10-11T19:04:59.760Z,51.92
2022-10-11T19:10:05.961Z,46.97
2022-10-11T19:15:11.995Z,81.75
2022-10-11T19:20:16.807Z,51.30
2022-10-11T19:25:24.659Z,37.92
2022-10-11T19:30:29.198Z,42.83
2022-10-11T19:35:34.431Z,32.75
2022-10-11T19:40:39.996Z,28.42
2022-10-11T19:45:44.797Z,28.05
2022-10-11T19:50:48.927Z,46.53
2022-10-11T19:55:54.626Z,36.85
2022-10-11T20:01:04.639Z,32.55
2022-10-11T20:06:09.783Z,34.08
2022-10-11T20:11:15.655Z,32.08
2022-10-11T20:16:23.079Z,36.20
2022-10-11T20:21:30.031Z,31.15
2022-10-11T20:26:36.348Z,30.38
2022-10-11T20:31:40.932Z,25.00
2022-10-11T20:36:48.895Z,28.20
2022-10-11T20:41:54.517Z,38.83
2022-10-11T20:47:03.740Z,30.40
2022-10-11T20:52:08.412Z,29.00
2022-10-11T20:57:14.405Z,32.08
2022-10-11T21:02:19.161Z,25.75
2022-10-11T21:07:23.400Z,35.50
2022-10-11T21:12:28.775Z,30.88
2022-10-11T21:17:32.841Z,32.85
2022-10-11T21:22:37.189Z,33.80
2022-10-11T21:27:43.119Z,35.42
2022-10-11T21:32:47.169Z,39.67
2022-10-11T21:37:51.235Z,34.08
2022-10-11T21:42:56.864Z,32.47
2022-10-11T21:48:00.897Z,36.45
2022-10-11T21:53:04.988Z,36.45
2022-10-11T21:58:10.470Z,27.77
2022-10-11T22:03:14.450Z,40.45
2022-10-11T22:08:19.814Z,45.67
2022-10-11T22:13:25.754Z,30.45
2022-10-11T22:18:33.315Z,34.17
2022-10-11T22:23:38.025Z,30.90
2022-10-11T22:28:44.190Z,29.88
2022-10-11T22:33:48.521Z,32.45
2022-10-11T22:38:52.844Z,32.30
2022-10-11T22:43:58.317Z,24.20
2022-10-11T22:49:02.349Z,21.05
2022-10-11T22:54:06.601Z,23.60
2022-10-11T22:59:12.946Z,21.65
2022-10-11T23:04:17.727Z,23.48
2022-10-11T23:09:21.951Z,21.17
2022-10-11T23:14:28.265Z,25.25
2022-10-11T23:19:32.224Z,36.88
2022-10-11T23:24:36.234Z,24.20
2022-10-11T23:29:41.756Z,24.38
2022-10-11T23:34:46.773Z,28.23
2022-10-11T23:39:52.078Z,27.17
2022-10-11T23:44:57.396Z,23.73
2022-10-11T23:50:01.896Z,20.27
2022-10-11T23:55:06.673Z,25.45
